• Join FlightAware (Why Join?)
  • Login
  • US Flag 
10:19AM EST


 

Airport Tracker/Info


-or-


 

Live Flight TrackerFlight Track Log ✈ N1811Y ✈ 28 Apr 2014 ✈ X05 - KTRI

Flight Track Log - Related Links

Times and Time Zones

All times are in EDT time to prevent confusion due to time zone crossing. See the N1811Y flight status page for this flight to view local times or setup timezone preferences in your user account.

Time Position Orientation Groundspeed Altitude Reporting Facility
EDT Latitude Longitude Course Direction KTS MPH feet Rate Location/Type
07:54AM 28.4333 -82.5000 18° North 134 154 2,300  Level Tampa TRACON
07:55AM 28.4500 -82.5000 360° North 134 154 2,700 600 Climbing Tampa TRACON
07:56AM 28.4833 -82.5000 360° North 138 159 3,300 660 Climbing Tampa TRACON
07:57AM 28.5333 -82.4833 16° North 142 163 4,100 600 Climbing Tampa TRACON
07:58AM 28.5583 -82.4742 18° North 139 160 4,500 540 Climbing Jacksonville Center
07:59AM 28.5978 -82.4669 North 142 163 5,100 600 Climbing Jacksonville Center
08:00AM 28.5772 -82.4065 18° North  Level FlightAware Approximate
08:00AM 28.6333 -82.4525 20° North 137 158 5,800  Level Jacksonville Center
08:01AM 28.6750 -82.4383 17° North 144 166 6,000  Climbing Jacksonville Center
08:02AM 28.7167 -82.4406 357° North 167 192 5,900 -60 Descending Jacksonville Center
08:03AM 28.7628 -82.4403 360° North 171 197 5,900  Level Jacksonville Center
08:04AM 28.8106 -82.4375 North 173 199 5,900  Level Jacksonville Center
08:05AM 28.8628 -82.4397 358° North 173 199 5,900  Level Jacksonville Center
08:06AM 28.9150 -82.4394 360° North 173 199 5,900  Level Jacksonville Center
08:07AM 28.9631 -82.4392 360° North 173 199 5,900  Level Jacksonville Center
08:08AM 29.0069 -82.4367 North 173 199 5,900  Level Jacksonville Center
08:09AM 29.0592 -82.4389 358° North 173 199 5,900  Level Jacksonville Center
08:10AM 29.1028 -82.4386 360° North 171 197 5,900  Level Jacksonville Center
08:11AM 29.1614 -82.4383 360° North 170 196 5,900  Level Jacksonville Center
08:12AM 29.2094 -82.4358 North 171 197 5,900  Level Jacksonville Center
08:13AM 29.2469 -82.4356 360° North 173 199 5,900  Level Jacksonville Center
08:14AM 29.2969 -82.4353 360° North 173 199 5,900  Level Jacksonville Center
08:15AM 29.3492 -82.4375 358° North 172 198 5,900  Level Jacksonville Center
08:16AM 29.3931 -82.4350 North 173 199 5,900  Level Jacksonville Center
08:17AM 29.4411 -82.4372 358° North 171 197 5,900  Level Jacksonville Center
08:18AM 29.5036 -82.4367 360° North 172 198 5,900  Level Jacksonville Center
08:19AM 29.5497 -82.4367 360° North 173 199 5,900  Level Jacksonville Center
08:20AM 29.5975 -82.4339 North 173 199 5,900  Level Jacksonville Center
08:21AM 29.6539 -82.4336 360° North 174 200 5,900  Level Jacksonville Center
08:22AM 29.6936 -82.4358 357° North 185 213 5,900  Level Jacksonville Center
08:23AM 29.7417 -82.4356 360° North 185 213 6,000  Climbing Jacksonville Center
08:24AM 29.7917 -82.4356 360° North 175 201 6,000  Level Jacksonville Center
08:25AM 29.8378 -82.4328 North 175 201 6,000  Level Jacksonville Center
08:26AM 29.8858 -82.4325 360° North 175 201 6,000  Level Jacksonville Center
08:27AM 29.9358 -82.4347 358° North 175 201 6,000  Level Jacksonville Center
08:28AM 29.9817 -82.4322 North 175 201 6,000  Level Jacksonville Center
08:29AM 30.0339 -82.4344 358° North 175 201 6,000  Level Jacksonville Center
08:30AM 30.0819 -82.4342 360° North 175 201 6,000  Level Jacksonville Center
08:31AM 30.1319 -82.4314 North 175 201 6,000  Level Jacksonville Center
08:32AM 30.1800 -82.4311 360° North 175 201 6,000  Level Jacksonville Center
08:33AM 30.2281 -82.4311 360° North 175 201 6,000  Level Jacksonville Center
08:34AM 30.2844 -82.4308 360° North 175 201 6,000  Level Jacksonville Center
08:35AM 30.3347 -82.4306 360° North 175 201 6,000  Level Jacksonville Center
08:36AM 30.3825 -82.4303 360° North 174 200 6,000  Level Jacksonville Center
08:37AM 30.4328 -82.4300 360° North 174 200 6,000  Level Jacksonville Center
08:38AM 30.4828 -82.4297 360° North 174 200 6,000  Level Jacksonville Center
08:39AM 30.5331 -82.4319 358° North 179 206 6,000  Level Jacksonville Center
08:40AM 30.5808 -82.4292 North 179 206 6,000  Level Jacksonville Center
08:41AM 30.6311 -82.4289 360° North 179 206 6,000  Level Jacksonville Center
08:42AM 30.6811 -82.4289 360° North 179 206 6,000  Level Jacksonville Center
08:43AM 30.7292 -82.4286 360° North 179 206 6,000  Level Jacksonville Center
08:44AM 30.7814 -82.4308 358° North 179 206 6,000  Level Jacksonville Center
08:45AM 30.8294 -82.4306 360° North 179 206 6,000  Level Jacksonville Center
08:46AM 30.8794 -82.4303 360° North 179 206 6,000  Level Jacksonville Center
08:47AM 30.9317 -82.4300 360° North 179 206 6,000  Level Jacksonville Center
08:48AM 30.9797 -82.4297 360° North 179 206 6,100 180 Climbing Jacksonville Center
08:49AM 31.0278 -82.4294 360° North 179 206 6,400 300 Climbing Jacksonville Center
08:50AM 31.0717 -82.4292 360° North 173 199 6,700 240 Climbing Jacksonville Center
08:51AM 31.1156 -82.4317 357° North 162 186 6,900 120 Climbing Jacksonville Center
08:52AM 31.1594 -82.4314 360° North 157 181 7,000  Climbing Jacksonville Center
08:53AM 31.2072 -82.4311 360° North 162 186 7,000  Level Jacksonville Center
08:54AM 31.2553 -82.4283 North 162 186 7,000  Level Jacksonville Center
08:55AM 31.3033 -82.4258 North 162 186 7,000  Level Jacksonville Center
08:56AM 31.3494 -82.4281 358° North 162 186 7,000  Level Jacksonville Center
08:57AM 31.3953 -82.4253 North 167 192 7,000  Level Jacksonville Center
08:58AM 31.4453 -82.4250 360° North 172 198 7,000  Level Jacksonville Center
08:59AM 31.4933 -82.4247 360° North 172 198 7,000  Level Jacksonville Center
09:00AM 31.5394 -82.4244 360° North 177 204 7,000  Level Jacksonville Center
09:01AM 31.5894 -82.4267 358° North 172 198 7,000  Level Jacksonville Center
09:02AM 31.6417 -82.4264 360° North 179 206 7,000  Level Jacksonville Center
09:03AM 31.6875 -82.4261 360° North 179 206 7,000  Level Jacksonville Center
09:04AM 31.7336 -82.4236 North 174 200 7,000  Level Jacksonville Center
09:05AM 31.7897 -82.4258 358° North 180 207 7,000  Level Jacksonville Center
09:06AM 31.8358 -82.4256 360° North 174 200 7,000  Level Jacksonville Center
09:07AM 31.8839 -82.4228 North 174 200 7,000  Level Jacksonville Center
09:08AM 31.9361 -82.4250 358° North 179 206 7,000  Level Jacksonville Center
09:09AM 31.9797 -82.4222 North 172 198 7,000  Level Jacksonville Center
09:10AM 32.0300 -82.4244 358° North 172 198 7,000  Level Jacksonville Center
09:11AM 32.0800 -82.4242 360° North 177 204 7,000  Level Jacksonville Center
09:12AM 32.1322 -82.4239 360° North 176 203 7,000  Level Jacksonville Center
09:13AM 32.2014 -82.4236 360° North 177 204 7,000  Level Atlanta Center
09:14AM 32.2411 -82.4231 North 182 209 7,000  Level Atlanta Center
09:15AM 32.2933 -82.4244 359° North 176 203 7,000  Level Atlanta Center
09:16AM 32.3433 -82.4186 North 176 203 7,000  Level Atlanta Center
09:17AM 32.3933 -82.4203 358° North 176 203 7,000  Level Atlanta Center
09:18AM 32.4497 -82.4217 359° North 176 203 7,000  Level Atlanta Center
09:19AM 32.5000 -82.4208 North 176 203 7,000  Level Atlanta Center
09:20AM 32.5500 -82.4197 North 176 203 7,000  Level Atlanta Center
09:21AM 32.6000 -82.4189 North 176 203 7,000  Level Atlanta Center
09:22AM 32.6522 -82.4206 358° North 176 203 7,000  Level Atlanta Center
09:23AM 32.7044 -82.4169 North 176 203 7,000  Level Atlanta Center
09:24AM 32.7544 -82.4186 358° North 176 203 7,000  Level Atlanta Center
09:25AM 32.8047 -82.4175 North 176 203 7,000  Level Atlanta Center
09:26AM 32.8547 -82.4192 358° North 176 203 7,000  Level Atlanta Center
09:27AM 32.9047 -82.4183 North 176 203 7,000  Level Atlanta Center
09:28AM 32.9550 -82.4197 359° North 176 203 7,000  Level Atlanta Center
09:29AM 33.0069 -82.4189 North 176 203 7,000  Level Atlanta Center
09:30AM 33.0572 -82.4178 North 176 203 7,000  Level Atlanta Center
09:31AM 33.1094 -82.4169 North 176 203 7,000  Level Atlanta Center
09:33AM 33.1634 -82.4169 North  Level FlightAware Approximate
09:40AM 33.5018 -82.4168 North  Level FlightAware Approximate
09:41AM 33.5501 -82.4168 North  Level FlightAware Approximate
09:42AM 33.5984 -82.4168 North  Level FlightAware Approximate
09:43AM 33.6468 -82.4168 North  Level FlightAware Approximate
09:44AM 33.6951 -82.4168 North  Level FlightAware Approximate
09:45AM 33.7434 -82.4167 North  Level FlightAware Approximate
09:46AM 33.7918 -82.4167 North  Level FlightAware Approximate
09:47AM 33.8401 -82.4167 North  Level FlightAware Approximate
09:48AM 33.8884 -82.4167 North  Level FlightAware Approximate
09:49AM 33.9368 -82.4167 North  Level FlightAware Approximate
09:50AM 33.9851 -82.4167 North  Level FlightAware Approximate
09:51AM 34.0335 -82.4167 North  Level FlightAware Approximate
09:52AM 34.0818 -82.4167 North  Level FlightAware Approximate
09:53AM 34.1301 -82.4162 North  Level FlightAware Approximate
09:54AM 34.1784 -82.4153 North  Level FlightAware Approximate
09:55AM 34.2268 -82.4145 North  Level FlightAware Approximate
09:56AM 34.2751 -82.4137 North  Level FlightAware Approximate
09:57AM 34.3234 -82.4128 North  Level FlightAware Approximate
09:58AM 34.3718 -82.4120 North  Level FlightAware Approximate
09:59AM 34.4201 -82.4112 North  Level FlightAware Approximate
10:00AM 34.4684 -82.4104 North  Level FlightAware Approximate
10:01AM 34.5168 -82.4095 North  Level FlightAware Approximate
10:02AM 34.5651 -82.4087 North  Level FlightAware Approximate
10:03AM 34.6134 -82.4079 North  Level FlightAware Approximate
10:04AM 34.6617 -82.4070 North  Level FlightAware Approximate
10:05AM 34.7101 -82.4062 North  Level FlightAware Approximate
10:06AM 34.7584 -82.4054 North  Level FlightAware Approximate
10:07AM 34.8072 -82.4045 North  Level FlightAware Approximate
10:08AM 34.8560 -82.4037 North  Level FlightAware Approximate
10:09AM 34.9047 -82.4028 North  Level FlightAware Approximate
10:10AM 34.9535 -82.4020 North  Level FlightAware Approximate
10:11AM 35.0023 -82.4011 North  Level FlightAware Approximate
10:12AM 35.0511 -82.4003 North  Level FlightAware Approximate
10:13AM 35.0998 -82.4000 North  Level FlightAware Approximate
10:14AM 35.1486 -82.4000 North  Level FlightAware Approximate
10:15AM 35.1974 -82.4000 North  Level FlightAware Approximate
10:16AM 35.2462 -82.4000 North  Level FlightAware Approximate
10:17AM 35.2950 -82.4000 North  Level FlightAware Approximate
10:18AM 35.3438 -82.4000 North  Level FlightAware Approximate
10:19AM 35.3925 -82.4000 North  Level FlightAware Approximate
10:20AM 35.4413 -82.4000 North  Level FlightAware Approximate
10:21AM 35.4901 -82.4000 North  Level FlightAware Approximate
10:22AM 35.5389 -82.4000 North  Level FlightAware Approximate
10:23AM 35.5877 -82.4000 North  Level FlightAware Approximate
10:24AM 35.6365 -82.4000 North  Level FlightAware Approximate
10:25AM 35.6852 -82.4000 North  Level FlightAware Approximate
10:26AM 35.7340 -82.4000 North  Level FlightAware Approximate
10:27AM 35.7828 -82.4000 North  Level FlightAware Approximate
10:28AM 35.8316 -82.4000 North  Level FlightAware Approximate
10:29AM 35.8804 -82.4000 North  Level FlightAware Approximate
10:30AM 35.9291 -82.4000 North  Level FlightAware Approximate
10:31AM 35.9779 -82.4000 North  Level FlightAware Approximate
10:32AM 36.0267 -82.4000 North  Level FlightAware Approximate
10:33AM 36.0755 -82.4000 North  Level FlightAware Approximate
10:34AM 36.1243 -82.4000 North  Level FlightAware Approximate
10:35AM 36.1731 -82.4000 North  Level FlightAware Approximate
10:36AM 36.2218 -82.4000 North  Level FlightAware Approximate
10:37AM 36.2706 -82.4000 North  Level FlightAware Approximate
10:38AM 36.3194 -82.4000 North  Level FlightAware Approximate
10:39AM 36.3682 -82.4000 North  Level FlightAware Approximate
10:40AM 36.4170 -82.4000 North  Level FlightAware Approximate
10:41AM 36.4658 -82.4000 North  Level FlightAware Approximate
10:42AM 36.4667 -82.4000 North  Level FlightAware Approximate
10:43AM 36.4752 -82.4074 325° Northwest  Level Estimated
10:44AM 36.4752 -82.4074 North  Level Estimated
10:45AM 36.4752 -82.4074 North  Level Estimated
10:46AM 36.4752 -82.4074 North  Level Estimated
10:47AM 36.4752 -82.4074 North  Level Estimated